createdAt,value
2018-10-17T00:00:08.586Z,1012.77
2018-10-17T00:01:08.617Z,1012.77
2018-10-17T00:02:08.561Z,1012.76
2018-10-17T00:03:08.528Z,1012.78
2018-10-17T00:04:08.529Z,1012.76
2018-10-17T00:05:08.590Z,1012.75
2018-10-17T00:06:08.517Z,1012.73
2018-10-17T00:07:08.565Z,1012.77
2018-10-17T00:08:08.493Z,1012.75
2018-10-17T00:09:08.464Z,1012.71
2018-10-17T00:10:08.503Z,1012.73
2018-10-17T00:11:08.487Z,1012.69
2018-10-17T00:12:08.432Z,1012.75
2018-10-17T00:13:08.502Z,1012.73
2018-10-17T00:14:08.433Z,1012.74
2018-10-17T00:15:08.414Z,1012.73
2018-10-17T00:16:08.396Z,1012.74
2018-10-17T00:17:08.450Z,1012.73
2018-10-17T00:18:08.363Z,1012.74
2018-10-17T00:19:08.411Z,1012.76
2018-10-17T00:20:08.354Z,1012.77
2018-10-17T00:21:08.351Z,1012.75
2018-10-17T00:22:08.325Z,1012.77
2018-10-17T00:23:08.455Z,1012.75
2018-10-17T00:24:08.318Z,1012.79
2018-10-17T00:25:08.385Z,1012.75
2018-10-17T00:26:08.277Z,1012.73
2018-10-17T00:27:08.284Z,1012.74
2018-10-17T00:28:08.252Z,1012.74
2018-10-17T00:29:08.384Z,1012.73
2018-10-17T00:30:08.232Z,1012.72
2018-10-17T00:31:08.343Z,1012.71
2018-10-17T00:32:08.208Z,1012.70
2018-10-17T00:33:08.217Z,1012.73
2018-10-17T00:34:08.187Z,1012.68
2018-10-17T00:35:08.284Z,1012.70
2018-10-17T00:36:08.169Z,1012.65
2018-10-17T00:37:08.159Z,1012.65
2018-10-17T00:38:08.145Z,1012.63
2018-10-17T00:39:08.156Z,1012.61
2018-10-17T00:40:08.129Z,1012.57
2018-10-17T00:41:08.206Z,1012.61
2018-10-17T00:42:08.105Z,1012.55
2018-10-17T00:43:08.136Z,1012.51
2018-10-17T00:44:08.075Z,1012.53
2018-10-17T00:45:08.064Z,1012.51
2018-10-17T00:46:08.064Z,1012.52
2018-10-17T00:47:08.158Z,1012.54
2018-10-17T00:48:08.068Z,1012.53
2018-10-17T00:49:08.085Z,1012.54
2018-10-17T00:50:08.010Z,1012.52
2018-10-17T00:51:08.002Z,1012.50
2018-10-17T00:52:07.992Z,1012.54
2018-10-17T00:53:08.016Z,1012.51
2018-10-17T00:54:07.965Z,1012.53
2018-10-17T00:55:08.021Z,1012.56
2018-10-17T00:56:07.973Z,1012.54
2018-10-17T00:57:07.930Z,1012.52
2018-10-17T00:58:07.940Z,1012.47
2018-10-17T00:59:07.980Z,1012.46
2018-10-17T01:00:07.923Z,1012.48
2018-10-17T01:01:07.961Z,1012.46
2018-10-17T01:02:07.932Z,1012.45
2018-10-17T01:03:07.869Z,1012.45
2018-10-17T01:04:07.873Z,1012.46
2018-10-17T01:05:07.910Z,1012.45
2018-10-17T01:06:07.834Z,1012.45
2018-10-17T01:07:07.882Z,1012.43
2018-10-17T01:08:07.812Z,1012.48
2018-10-17T01:09:07.810Z,1012.48
2018-10-17T01:10:07.792Z,1012.49
2018-10-17T01:11:07.903Z,1012.44
2018-10-17T01:12:07.770Z,1012.47
2018-10-17T01:13:07.857Z,1012.48
2018-10-17T01:14:07.758Z,1012.50
2018-10-17T01:15:07.735Z,1012.51
2018-10-17T01:16:07.723Z,1012.48
2018-10-17T01:17:07.798Z,1012.49
2018-10-17T01:18:07.733Z,1012.49
2018-10-17T01:19:07.759Z,1012.46
2018-10-17T01:20:07.688Z,1012.47
2018-10-17T01:21:07.684Z,1012.44
2018-10-17T01:22:07.669Z,1012.49
2018-10-17T01:23:07.740Z,1012.44
2018-10-17T01:24:07.646Z,1012.46
2018-10-17T01:25:07.667Z,1012.41
2018-10-17T01:26:07.625Z,1012.45
2018-10-17T01:27:07.607Z,1012.47
2018-10-17T01:28:07.591Z,1012.47
2018-10-17T01:29:07.634Z,1012.46
2018-10-17T01:30:07.600Z,1012.47
2018-10-17T01:31:07.650Z,1012.49
2018-10-17T01:32:07.545Z,1012.45
2018-10-17T01:33:07.534Z,1012.50
2018-10-17T01:34:07.523Z,1012.54
2018-10-17T01:35:07.580Z,1012.51
2018-10-17T01:36:07.518Z,1012.51
2018-10-17T01:37:07.538Z,1012.51
2018-10-17T01:38:07.492Z,1012.50
2018-10-17T01:39:07.468Z,1012.51
2018-10-17T01:40:07.456Z,1012.48
2018-10-17T01:41:07.467Z,1012.48
2018-10-17T01:42:07.454Z,1012.46
2018-10-17T01:43:07.461Z,1012.48
2018-10-17T01:44:07.412Z,1012.53
2018-10-17T01:45:07.424Z,1012.47
2018-10-17T01:46:07.408Z,1012.48
2018-10-17T01:47:07.438Z,1012.47
2018-10-17T01:48:07.393Z,1012.46
2018-10-17T01:49:07.420Z,1012.44
2018-10-17T01:50:07.348Z,1012.41
2018-10-17T01:51:07.343Z,1012.44
2018-10-17T01:52:07.340Z,1012.41
2018-10-17T01:53:07.421Z,1012.40
2018-10-17T01:54:07.344Z,1012.38
2018-10-17T01:55:07.367Z,1012.36
2018-10-17T01:56:07.295Z,1012.40
2018-10-17T01:57:07.299Z,1012.35
2018-10-17T01:58:07.258Z,1012.34
2018-10-17T01:59:07.350Z,1012.35
2018-10-17T02:00:07.260Z,1012.29
2018-10-17T02:01:07.301Z,1012.33
2018-10-17T02:02:07.216Z,1012.28
2018-10-17T02:03:07.201Z,1012.27
2018-10-17T02:04:07.214Z,1012.29
2018-10-17T02:05:07.235Z,1012.28
2018-10-17T02:06:07.198Z,1012.28
2018-10-17T02:07:07.185Z,1012.24
2018-10-17T02:08:07.175Z,1012.26
2018-10-17T02:09:07.151Z,1012.26
2018-10-17T02:10:07.128Z,1012.27
2018-10-17T02:11:07.148Z,1012.22
2018-10-17T02:12:07.122Z,1012.22
2018-10-17T02:13:07.161Z,1012.22
2018-10-17T02:14:07.100Z,1012.17
2018-10-17T02:15:07.071Z,1012.23
2018-10-17T02:16:07.061Z,1012.23
2018-10-17T02:17:07.158Z,1012.18
2018-10-17T02:18:07.041Z,1012.16
2018-10-17T02:19:07.127Z,1012.15
2018-10-17T02:20:07.039Z,1012.12
2018-10-17T02:21:07.005Z,1012.12
2018-10-17T02:22:07.016Z,1012.10
2018-10-17T02:23:07.078Z,1012.12
2018-10-17T02:24:06.971Z,1012.10
2018-10-17T02:25:07.002Z,1012.13
2018-10-17T02:26:06.972Z,1012.12
2018-10-17T02:27:06.937Z,1012.13
2018-10-17T02:28:06.937Z,1012.13
2018-10-17T02:29:07.012Z,1012.16
2018-10-17T02:30:07.035Z,1012.18
2018-10-17T02:31:06.950Z,1012.13
2018-10-17T02:32:06.918Z,1012.19
2018-10-17T02:33:06.873Z,1012.15
2018-10-17T02:34:06.861Z,1012.18
2018-10-17T02:35:06.894Z,1012.14
2018-10-17T02:36:06.839Z,1012.20
2018-10-17T02:37:06.853Z,1012.22
2018-10-17T02:38:06.854Z,1012.17
2018-10-17T02:39:06.810Z,1012.17
2018-10-17T02:40:06.798Z,1012.26
2018-10-17T02:41:06.852Z,1012.23
2018-10-17T02:42:06.820Z,1012.23
2018-10-17T02:43:06.844Z,1012.25
2018-10-17T02:44:06.773Z,1012.24
2018-10-17T02:45:06.739Z,1012.24
2018-10-17T02:46:06.728Z,1012.23
2018-10-17T02:47:06.804Z,1012.26
2018-10-17T02:48:06.706Z,1012.24
2018-10-17T02:49:06.761Z,1012.25
2018-10-17T02:50:06.713Z,1012.24
2018-10-17T02:51:06.699Z,1012.23
2018-10-17T02:52:06.699Z,1012.26
2018-10-17T02:53:06.739Z,1012.25
2018-10-17T02:54:06.644Z,1012.30
2018-10-17T02:55:06.669Z,1012.27
2018-10-17T02:56:06.643Z,1012.24
2018-10-17T02:57:06.606Z,1012.27
2018-10-17T02:58:06.646Z,1012.28
2018-10-17T02:59:06.632Z,1012.29
2018-10-17T03:00:06.578Z,1012.29
2018-10-17T03:01:06.650Z,1012.26
2018-10-17T03:02:06.568Z,1012.25
2018-10-17T03:03:06.542Z,1012.23
2018-10-17T03:04:06.531Z,1012.27
2018-10-17T03:05:06.589Z,1012.25
2018-10-17T03:06:06.509Z,1012.21
2018-10-17T03:07:06.556Z,1012.21
2018-10-17T03:08:06.506Z,1012.23
2018-10-17T03:09:06.503Z,1012.25
2018-10-17T03:10:06.479Z,1012.20
2018-10-17T03:11:06.533Z,1012.21
2018-10-17T03:12:06.461Z,1012.24
2018-10-17T03:13:06.485Z,1012.23
2018-10-17T03:14:06.435Z,1012.26
2018-10-17T03:15:06.428Z,1012.27
2018-10-17T03:16:06.398Z,1012.28
2018-10-17T03:17:06.493Z,1012.30
2018-10-17T03:18:06.375Z,1012.33
2018-10-17T03:19:06.459Z,1012.32
2018-10-17T03:20:06.478Z,1012.28
2018-10-17T03:21:06.406Z,1012.33
2018-10-17T03:22:06.405Z,1012.33
2018-10-17T03:23:06.462Z,1012.28
2018-10-17T03:24:06.318Z,1012.33
2018-10-17T03:25:06.347Z,1012.36
2018-10-17T03:26:06.311Z,1012.33
2018-10-17T03:27:06.284Z,1012.35
2018-10-17T03:28:06.350Z,1012.33
2018-10-17T03:29:06.289Z,1012.34
2018-10-17T03:30:06.259Z,1012.35
2018-10-17T03:31:06.324Z,1012.36
2018-10-17T03:32:06.228Z,1012.29
2018-10-17T03:33:06.266Z,1012.32
2018-10-17T03:34:06.214Z,1012.25
2018-10-17T03:35:06.246Z,1012.33
2018-10-17T03:36:06.184Z,1012.31
2018-10-17T03:37:06.252Z,1012.32
2018-10-17T03:38:06.167Z,1012.32
2018-10-17T03:39:06.159Z,1012.29
2018-10-17T03:40:06.188Z,1012.31
2018-10-17T03:41:06.157Z,1012.28
2018-10-17T03:42:06.121Z,1012.31
2018-10-17T03:43:06.165Z,1012.29
2018-10-17T03:44:06.096Z,1012.30
2018-10-17T03:45:06.085Z,1012.32
2018-10-17T03:46:06.076Z,1012.27
2018-10-17T03:47:06.203Z,1012.31
2018-10-17T03:48:06.058Z,1012.32
2018-10-17T03:49:06.190Z,1012.30
2018-10-17T03:50:06.034Z,1012.32
2018-10-17T03:51:06.018Z,1012.34
2018-10-17T03:52:06.027Z,1012.34
2018-10-17T03:53:06.052Z,1012.31
2018-10-17T03:54:06.019Z,1012.30
2018-10-17T03:55:06.005Z,1012.28
2018-10-17T03:56:05.970Z,1012.34
2018-10-17T03:57:05.956Z,1012.34
2018-10-17T03:58:05.952Z,1012.35
2018-10-17T03:59:05.979Z,1012.34
2018-10-17T04:00:05.950Z,1012.33
2018-10-17T04:01:05.933Z,1012.29
2018-10-17T04:02:05.897Z,1012.31
2018-10-17T04:03:05.940Z,1012.33
2018-10-17T04:04:05.878Z,1012.35
2018-10-17T04:05:05.912Z,1012.34
2018-10-17T04:06:05.896Z,1012.36
2018-10-17T04:07:05.928Z,1012.38
2018-10-17T04:08:05.833Z,1012.37
2018-10-17T04:09:05.820Z,1012.40
2018-10-17T04:10:05.811Z,1012.39
2018-10-17T04:11:05.897Z,1012.40
2018-10-17T04:12:05.789Z,1012.37
2018-10-17T04:13:05.863Z,1012.40
2018-10-17T04:14:05.766Z,1012.40
2018-10-17T04:15:05.779Z,1012.41
2018-10-17T04:16:05.744Z,1012.40
2018-10-17T04:17:05.784Z,1012.41
2018-10-17T04:18:05.751Z,1012.37
2018-10-17T04:19:05.837Z,1012.37
2018-10-17T04:20:05.698Z,1012.37
2018-10-17T04:21:05.690Z,1012.37
2018-10-17T04:22:05.675Z,1012.38
2018-10-17T04:23:05.677Z,1012.38
2018-10-17T04:24:05.698Z,1012.40
2018-10-17T04:25:05.683Z,1012.41
2018-10-17T04:26:05.632Z,1012.47
2018-10-17T04:27:05.639Z,1012.45
2018-10-17T04:28:05.613Z,1012.47
2018-10-17T04:29:05.632Z,1012.49
2018-10-17T04:30:05.593Z,1012.51
2018-10-17T04:31:05.727Z,1012.49
2018-10-17T04:32:05.601Z,1012.56
2018-10-17T04:33:05.554Z,1012.54
2018-10-17T04:34:05.542Z,1012.55
2018-10-17T04:35:05.596Z,1012.55
2018-10-17T04:36:05.596Z,1012.54
2018-10-17T04:37:05.555Z,1012.59
2018-10-17T04:38:05.512Z,1012.55
2018-10-17T04:39:05.491Z,1012.56
2018-10-17T04:40:05.482Z,1012.55
2018-10-17T04:41:05.502Z,1012.55
2018-10-17T04:42:05.456Z,1012.52
2018-10-17T04:43:05.491Z,1012.56
2018-10-17T04:44:05.443Z,1012.55
2018-10-17T04:45:05.433Z,1012.58
2018-10-17T04:46:05.414Z,1012.56
2018-10-17T04:47:05.434Z,1012.55
2018-10-17T04:48:05.395Z,1012.57
2018-10-17T04:49:05.427Z,1012.55
2018-10-17T04:50:05.399Z,1012.58
2018-10-17T04:51:05.371Z,1012.53
2018-10-17T04:52:05.348Z,1012.53
2018-10-17T04:53:05.357Z,1012.54
2018-10-17T04:54:05.323Z,1012.57
2018-10-17T04:55:05.460Z,1012.55
2018-10-17T04:56:05.310Z,1012.51
2018-10-17T04:57:05.292Z,1012.47
2018-10-17T04:58:05.284Z,1012.46
2018-10-17T04:59:05.272Z,1012.50
2018-10-17T05:00:05.263Z,1012.51
2018-10-17T05:01:05.356Z,1012.52
2018-10-17T05:02:05.238Z,1012.51
2018-10-17T05:03:05.222Z,1012.53
2018-10-17T05:04:05.227Z,1012.57
2018-10-17T05:05:05.225Z,1012.58
2018-10-17T05:06:05.195Z,1012.64
2018-10-17T05:07:05.218Z,1012.59
2018-10-17T05:08:05.170Z,1012.59
2018-10-17T05:09:05.156Z,1012.58
2018-10-17T05:10:05.149Z,1012.63
2018-10-17T05:11:05.196Z,1012.57
2018-10-17T05:12:05.119Z,1012.60
2018-10-17T05:13:05.253Z,1012.58
2018-10-17T05:14:05.107Z,1012.59
2018-10-17T05:15:05.122Z,1012.60
2018-10-17T05:16:05.095Z,1012.57
2018-10-17T05:17:05.115Z,1012.57
2018-10-17T05:18:05.063Z,1012.56
2018-10-17T05:19:05.112Z,1012.59
2018-10-17T05:20:05.053Z,1012.56
2018-10-17T05:21:05.024Z,1012.58
2018-10-17T05:22:05.013Z,1012.57
2018-10-17T05:23:05.095Z,1012.58
2018-10-17T05:24:04.986Z,1012.58
2018-10-17T05:25:05.039Z,1012.60
2018-10-17T05:26:04.967Z,1012.58
2018-10-17T05:27:04.957Z,1012.58
2018-10-17T05:28:04.945Z,1012.61
2018-10-17T05:29:04.985Z,1012.61
2018-10-17T05:30:04.944Z,1012.53
2018-10-17T05:31:04.956Z,1012.58
2018-10-17T05:32:04.898Z,1012.60
2018-10-17T05:33:04.884Z,1012.59
2018-10-17T05:34:04.877Z,1012.58
2018-10-17T05:35:04.928Z,1012.57
2018-10-17T05:36:04.854Z,1012.62
2018-10-17T05:37:04.905Z,1012.63
2018-10-17T05:38:04.936Z,1012.63
2018-10-17T05:39:04.823Z,1012.57
2018-10-17T05:40:04.818Z,1012.57
2018-10-17T05:41:04.843Z,1012.58
2018-10-17T05:42:04.789Z,1012.51
2018-10-17T05:43:04.831Z,1012.54
2018-10-17T05:44:04.770Z,1012.53
2018-10-17T05:45:04.771Z,1012.56
2018-10-17T05:46:04.783Z,1012.54
2018-10-17T05:47:04.783Z,1012.56
2018-10-17T05:48:04.721Z,1012.52
2018-10-17T05:49:04.778Z,1012.52
2018-10-17T05:50:04.703Z,1012.54
2018-10-17T05:51:04.689Z,1012.54
2018-10-17T05:52:04.701Z,1012.52
2018-10-17T05:53:04.727Z,1012.58
2018-10-17T05:54:04.659Z,1012.56
2018-10-17T05:55:04.731Z,1012.52
2018-10-17T05:56:04.633Z,1012.59
2018-10-17T05:57:04.622Z,1012.61
2018-10-17T05:58:04.639Z,1012.63
2018-10-17T05:59:04.686Z,1012.66
2018-10-17T06:00:04.590Z,1012.65
2018-10-17T06:01:04.639Z,1012.66
2018-10-17T06:02:04.592Z,1012.71
2018-10-17T06:03:04.558Z,1012.71
2018-10-17T06:04:04.597Z,1012.72
2018-10-17T06:05:04.591Z,1012.75
2018-10-17T06:06:04.518Z,1012.80
2018-10-17T06:07:04.584Z,1012.78
2018-10-17T06:08:04.500Z,1012.79
2018-10-17T06:09:04.487Z,1012.79
2018-10-17T06:10:04.489Z,1012.78
2018-10-17T06:11:04.510Z,1012.81
2018-10-17T06:12:04.457Z,1012.84
2018-10-17T06:13:04.483Z,1012.82
2018-10-17T06:14:04.430Z,1012.84
2018-10-17T06:15:04.437Z,1012.83
2018-10-17T06:16:04.412Z,1012.83
2018-10-17T06:17:04.431Z,1012.84
2018-10-17T06:18:04.404Z,1012.81
2018-10-17T06:19:04.490Z,1012.84
2018-10-17T06:20:04.366Z,1012.83
2018-10-17T06:21:04.360Z,1012.83
2018-10-17T06:22:04.344Z,1012.88
2018-10-17T06:23:04.364Z,1012.81
2018-10-17T06:24:04.337Z,1012.84
2018-10-17T06:25:04.395Z,1012.77
2018-10-17T06:26:04.305Z,1012.84
2018-10-17T06:27:04.288Z,1012.81
2018-10-17T06:28:04.282Z,1012.79
2018-10-17T06:29:04.315Z,1012.78
2018-10-17T06:30:04.329Z,1012.79
2018-10-17T06:31:04.279Z,1012.85
2018-10-17T06:32:04.241Z,1012.85
2018-10-17T06:33:04.226Z,1012.86
2018-10-17T06:34:04.312Z,1012.84
2018-10-17T06:35:04.220Z,1012.86
2018-10-17T06:36:04.203Z,1012.83
2018-10-17T06:37:04.282Z,1012.83
2018-10-17T06:38:04.171Z,1012.86
2018-10-17T06:39:04.155Z,1012.82
2018-10-17T06:40:04.151Z,1012.83
2018-10-17T06:41:04.144Z,1012.80
2018-10-17T06:42:04.121Z,1012.84
2018-10-17T06:43:04.195Z,1012.81
2018-10-17T06:44:04.173Z,1012.79
2018-10-17T06:45:04.089Z,1012.77
2018-10-17T06:46:04.075Z,1012.81
2018-10-17T06:47:04.134Z,1012.86
2018-10-17T06:48:04.056Z,1012.86
2018-10-17T06:49:04.139Z,1012.87
2018-10-17T06:50:04.048Z,1012.87
2018-10-17T06:51:04.098Z,1012.88
2018-10-17T06:52:04.008Z,1012.86
2018-10-17T06:53:04.051Z,1012.86
2018-10-17T06:54:04.065Z,1012.86
2018-10-17T06:55:04.075Z,1012.82
2018-10-17T06:56:04.003Z,1012.85
2018-10-17T06:57:03.955Z,1012.83
2018-10-17T06:58:03.945Z,1012.87
2018-10-17T06:59:03.974Z,1012.87
2018-10-17T07:00:03.924Z,1012.85
2018-10-17T07:01:03.961Z,1012.86
2018-10-17T07:02:03.981Z,1012.84
2018-10-17T07:03:03.888Z,1012.84
2018-10-17T07:04:03.896Z,1012.82
2018-10-17T07:05:03.931Z,1012.84
2018-10-17T07:06:03.865Z,1012.83
2018-10-17T07:07:03.927Z,1012.89
2018-10-17T07:08:03.892Z,1012.87
2018-10-17T07:09:03.821Z,1012.84
2018-10-17T07:10:03.815Z,1012.88
2018-10-17T07:11:03.849Z,1012.89
2018-10-17T07:12:03.792Z,1012.90
2018-10-17T07:13:03.852Z,1012.91
2018-10-17T07:14:03.786Z,1012.90
2018-10-17T07:15:03.815Z,1012.95
2018-10-17T07:16:03.746Z,1012.88
2018-10-17T07:17:03.743Z,1012.93
2018-10-17T07:18:03.727Z,1012.93
2018-10-17T07:19:03.781Z,1012.98
2018-10-17T07:20:03.729Z,1012.90
2018-10-17T07:21:03.690Z,1012.93
2018-10-17T07:22:03.684Z,1012.91
2018-10-17T07:23:03.704Z,1012.93
2018-10-17T07:24:03.658Z,1012.96
2018-10-17T07:25:03.736Z,1013.01
2018-10-17T07:26:03.667Z,1012.96
2018-10-17T07:27:03.623Z,1012.94
2018-10-17T07:28:03.619Z,1012.95
2018-10-17T07:29:03.641Z,1012.97
2018-10-17T07:30:03.592Z,1012.94
2018-10-17T07:31:03.628Z,1012.97
2018-10-17T07:32:03.602Z,1012.98
2018-10-17T07:33:03.560Z,1012.96
2018-10-17T07:34:03.548Z,1012.98
2018-10-17T07:35:03.539Z,1012.95
2018-10-17T07:36:03.588Z,1013.03
2018-10-17T07:37:03.525Z,1012.99
2018-10-17T07:38:03.503Z,1013.06
2018-10-17T07:39:03.530Z,1013.03
2018-10-17T07:40:03.483Z,1013.07
2018-10-17T07:41:03.474Z,1013.05
2018-10-17T07:42:03.537Z,1013.08
2018-10-17T07:43:03.468Z,1013.07
2018-10-17T07:44:03.438Z,1013.11
2018-10-17T07:45:03.480Z,1013.10
2018-10-17T07:46:03.411Z,1013.08
2018-10-17T07:47:03.420Z,1013.12
2018-10-17T07:48:03.427Z,1013.10
2018-10-17T07:49:03.401Z,1013.09
2018-10-17T07:50:03.370Z,1013.15
2018-10-17T07:51:03.392Z,1013.18
2018-10-17T07:52:03.356Z,1013.16
2018-10-17T07:53:03.485Z,1013.17
2018-10-17T07:54:03.370Z,1013.12
2018-10-17T07:55:03.314Z,1013.14
2018-10-17T07:56:03.307Z,1013.19
2018-10-17T07:57:03.299Z,1013.13
2018-10-17T07:58:03.314Z,1013.11
2018-10-17T07:59:03.293Z,1013.16
2018-10-17T08:00:03.362Z,1013.22
2018-10-17T08:01:03.248Z,1013.20
2018-10-17T08:02:03.240Z,1013.16
2018-10-17T08:03:03.229Z,1013.09
2018-10-17T08:04:03.253Z,1013.09
2018-10-17T08:05:03.225Z,1013.11
2018-10-17T08:06:03.242Z,1013.13
2018-10-17T08:07:03.183Z,1013.12
2018-10-17T08:08:03.172Z,1013.10
2018-10-17T08:09:03.164Z,1013.17
2018-10-17T08:10:03.245Z,1013.15
2018-10-17T08:11:03.161Z,1013.20
2018-10-17T08:12:03.192Z,1013.21
2018-10-17T08:13:03.119Z,1013.18
2018-10-17T08:14:03.126Z,1013.23
2018-10-17T08:15:03.096Z,1013.17
2018-10-17T08:16:03.125Z,1013.25
2018-10-17T08:17:03.090Z,1013.17
2018-10-17T08:18:03.101Z,1013.24
2018-10-17T08:19:03.051Z,1013.22
2018-10-17T08:20:03.042Z,1013.22
2018-10-17T08:21:03.030Z,1013.27
2018-10-17T08:22:03.051Z,1013.24
2018-10-17T08:23:03.028Z,1013.23
2018-10-17T08:24:03.066Z,1013.23
2018-10-17T08:25:02.985Z,1013.23
2018-10-17T08:26:02.988Z,1013.23
2018-10-17T08:27:02.961Z,1013.26
2018-10-17T08:28:02.951Z,1013.27
2018-10-17T08:29:02.987Z,1013.27
2018-10-17T08:30:02.948Z,1013.28
2018-10-17T08:31:02.915Z,1013.25
2018-10-17T08:32:02.906Z,1013.31
2018-10-17T08:33:02.896Z,1013.28
2018-10-17T08:34:02.882Z,1013.28
2018-10-17T08:35:02.928Z,1013.27
2018-10-17T08:36:03.067Z,1013.24
2018-10-17T08:37:03.031Z,1013.27
2018-10-17T08:38:02.867Z,1013.26
2018-10-17T08:39:02.831Z,1013.26
2018-10-17T08:40:02.822Z,1013.19
2018-10-17T08:41:02.993Z,1013.25
2018-10-17T08:42:02.795Z,1013.21
2018-10-17T08:43:02.785Z,1013.21
2018-10-17T08:44:02.803Z,1013.20
2018-10-17T08:45:02.869Z,1013.24
2018-10-17T08:46:02.756Z,1013.22
2018-10-17T08:47:02.803Z,1013.17
2018-10-17T08:48:02.730Z,1013.24
2018-10-17T08:49:02.715Z,1013.24
2018-10-17T08:50:02.726Z,1013.24
2018-10-17T08:51:02.742Z,1013.26
2018-10-17T08:52:02.688Z,1013.26
2018-10-17T08:53:02.726Z,1013.24
2018-10-17T08:54:02.663Z,1013.27
2018-10-17T08:55:02.651Z,1013.28
2018-10-17T08:56:02.731Z,1013.26
2018-10-17T08:57:02.630Z,1013.25
2018-10-17T08:58:02.727Z,1013.26
2018-10-17T08:59:02.662Z,1013.26
2018-10-17T09:00:02.595Z,1013.28
2018-10-17T09:01:02.583Z,1013.24
2018-10-17T09:02:02.593Z,1013.32
2018-10-17T09:03:02.562Z,1013.28
2018-10-17T09:04:02.548Z,1013.26
2018-10-17T09:05:02.597Z,1013.24
2018-10-17T09:06:02.632Z,1013.27
2018-10-17T09:07:02.518Z,1013.22
2018-10-17T09:08:02.569Z,1013.24
2018-10-17T09:09:02.494Z,1013.25
2018-10-17T09:10:02.487Z,1013.23
2018-10-17T09:11:02.511Z,1013.22
2018-10-17T09:12:02.551Z,1013.21
2018-10-17T09:13:02.465Z,1013.14
2018-10-17T09:14:02.515Z,1013.21
2018-10-17T09:15:02.429Z,1013.15
2018-10-17T09:16:02.465Z,1013.19
2018-10-17T09:17:02.438Z,1013.19
2018-10-17T09:18:02.476Z,1013.22
2018-10-17T09:19:02.380Z,1013.19
2018-10-17T09:20:02.538Z,1013.23
2018-10-17T09:21:02.714Z,1013.19
2018-10-17T09:22:02.745Z,1013.21
2018-10-17T09:23:02.382Z,1013.19
2018-10-17T09:24:02.360Z,1013.21
2018-10-17T09:25:02.418Z,1013.22
2018-10-17T09:26:02.311Z,1013.19
2018-10-17T09:27:02.293Z,1013.19
2018-10-17T09:28:02.314Z,1013.21
2018-10-17T09:29:02.311Z,1013.21
2018-10-17T09:30:02.315Z,1013.17
2018-10-17T09:31:02.250Z,1013.20
2018-10-17T09:32:02.239Z,1013.20
2018-10-17T09:33:02.238Z,1013.22
2018-10-17T09:34:02.292Z,1013.20
2018-10-17T09:35:02.248Z,1013.20
2018-10-17T09:36:02.240Z,1013.20
2018-10-17T09:37:02.184Z,1013.20
2018-10-17T09:38:02.171Z,1013.22
2018-10-17T09:39:02.162Z,1013.19
2018-10-17T09:40:02.183Z,1013.26
2018-10-17T09:41:02.173Z,1013.26
2018-10-17T09:42:02.224Z,1013.30
2018-10-17T09:43:02.123Z,1013.28
2018-10-17T09:44:02.111Z,1013.30
2018-10-17T09:45:02.101Z,1013.31
2018-10-17T09:46:02.149Z,1013.32
2018-10-17T09:47:02.101Z,1013.32
2018-10-17T09:48:02.112Z,1013.31
2018-10-17T09:49:02.049Z,1013.30
2018-10-17T09:50:02.038Z,1013.32
2018-10-17T09:51:02.028Z,1013.38
2018-10-17T09:52:02.085Z,1013.35
2018-10-17T09:53:02.046Z,1013.35
2018-10-17T09:54:02.080Z,1013.40
2018-10-17T09:55:01.992Z,1013.33
2018-10-17T09:56:01.974Z,1013.33
2018-10-17T09:57:01.961Z,1013.29
2018-10-17T09:58:02.022Z,1013.30
2018-10-17T09:59:01.977Z,1013.29
2018-10-17T10:00:02.012Z,1013.31
2018-10-17T10:01:01.918Z,1013.32
2018-10-17T10:02:01.909Z,1013.35
2018-10-17T10:03:01.916Z,1013.30
2018-10-17T10:04:01.885Z,1013.33
2018-10-17T10:05:01.903Z,1013.36
2018-10-17T10:06:01.917Z,1013.36
2018-10-17T10:07:01.864Z,1013.38
2018-10-17T10:08:01.839Z,1013.33
2018-10-17T10:09:01.848Z,1013.33
2018-10-17T10:10:01.866Z,1013.33
2018-10-17T10:11:01.913Z,1013.31
2018-10-17T10:12:09.358Z,1013.33
2018-10-17T10:13:01.782Z,1013.34
2018-10-17T10:14:01.774Z,1013.34
2018-10-17T10:15:01.787Z,1013.35
2018-10-17T10:16:01.791Z,1013.33
2018-10-17T10:17:01.796Z,1013.34
2018-10-17T10:18:01.740Z,1013.33
2018-10-17T10:19:01.727Z,1013.33
2018-10-17T10:20:01.707Z,1013.32
2018-10-17T10:21:01.711Z,1013.32
2018-10-17T10:22:01.747Z,1013.31
2018-10-17T10:23:01.710Z,1013.32
2018-10-17T10:24:01.692Z,1013.30
2018-10-17T10:25:01.725Z,1013.28
2018-10-17T10:26:01.635Z,1013.34
2018-10-17T10:27:01.646Z,1013.28
2018-10-17T10:28:01.731Z,1013.31
2018-10-17T10:29:01.604Z,1013.28
2018-10-17T10:30:01.611Z,1013.28
2018-10-17T10:31:01.582Z,1013.26
2018-10-17T10:32:01.571Z,1013.25
2018-10-17T10:33:01.578Z,1013.27
2018-10-17T10:34:01.579Z,1013.26
2018-10-17T10:35:01.545Z,1013.20
2018-10-17T10:36:01.586Z,1013.25
2018-10-17T10:37:01.514Z,1013.23
2018-10-17T10:38:01.504Z,1013.26
2018-10-17T10:39:01.511Z,1013.28
2018-10-17T10:40:01.514Z,1013.24
2018-10-17T10:41:01.470Z,1013.26
2018-10-17T10:42:01.518Z,1013.25
2018-10-17T10:43:01.448Z,1013.23
2018-10-17T10:44:01.467Z,1013.24
2018-10-17T10:45:01.623Z,1013.24
2018-10-17T10:46:01.419Z,1013.23
2018-10-17T10:47:01.406Z,1013.30
2018-10-17T10:48:01.426Z,1013.26
2018-10-17T10:49:01.475Z,1013.26
2018-10-17T10:50:01.382Z,1013.26
2018-10-17T10:51:01.390Z,1013.31
2018-10-17T10:52:01.353Z,1013.24
2018-10-17T10:53:01.528Z,1013.26
2018-10-17T10:54:01.404Z,1013.25
2018-10-17T10:55:01.321Z,1013.21
2018-10-17T10:56:01.325Z,1013.21
2018-10-17T10:57:01.344Z,1013.20
2018-10-17T10:58:01.362Z,1013.16
2018-10-17T10:59:01.329Z,1013.20
2018-10-17T11:00:01.290Z,1013.17
2018-10-17T11:01:01.269Z,1013.18
2018-10-17T11:02:01.259Z,1013.16
2018-10-17T11:03:01.272Z,1013.12
2018-10-17T11:04:01.221Z,1013.14
2018-10-17T11:05:01.316Z,1013.17
2018-10-17T11:06:01.213Z,1013.14
2018-10-17T11:07:01.191Z,1013.16
2018-10-17T11:08:01.192Z,1013.14
2018-10-17T11:09:01.200Z,1013.14
2018-10-17T11:10:01.155Z,1013.18
2018-10-17T11:11:01.225Z,1013.14
2018-10-17T11:12:01.133Z,1013.16
2018-10-17T11:13:01.120Z,1013.16
2018-10-17T11:14:01.292Z,1013.16
2018-10-17T11:15:01.406Z,1013.12
2018-10-17T11:16:01.091Z,1013.14
2018-10-17T11:17:01.142Z,1013.11
2018-10-17T11:18:01.069Z,1013.12
2018-10-17T11:19:01.055Z,1013.09
2018-10-17T11:20:01.048Z,1013.11
2018-10-17T11:21:01.122Z,1013.13
2018-10-17T11:22:01.105Z,1013.14
2018-10-17T11:23:01.057Z,1013.10
2018-10-17T11:24:01.004Z,1013.12
2018-10-17T11:25:00.991Z,1013.11
2018-10-17T11:26:00.979Z,1013.15
2018-10-17T11:27:01.026Z,1013.16
2018-10-17T11:28:00.958Z,1013.14
2018-10-17T11:29:01.009Z,1013.19
2018-10-17T11:30:00.936Z,1013.14
2018-10-17T11:31:00.923Z,1013.16
2018-10-17T11:32:01.003Z,1013.15
2018-10-17T11:33:00.997Z,1013.16
2018-10-17T11:34:00.909Z,1013.15
2018-10-17T11:35:00.939Z,1013.16
2018-10-17T11:36:00.872Z,1013.18
2018-10-17T11:37:00.859Z,1013.14
2018-10-17T11:38:00.867Z,1013.19
2018-10-17T11:39:00.846Z,1013.18
2018-10-17T11:40:00.861Z,1013.18
2018-10-17T11:41:00.876Z,1013.18
2018-10-17T11:42:00.816Z,1013.17
2018-10-17T11:43:00.800Z,1013.15
2018-10-17T11:44:00.784Z,1013.21
2018-10-17T11:45:00.826Z,1013.16
2018-10-17T11:46:00.786Z,1013.16
2018-10-17T11:47:00.781Z,1013.15
2018-10-17T11:48:00.739Z,1013.15
2018-10-17T11:49:00.729Z,1013.17
2018-10-17T11:50:00.723Z,1013.14
2018-10-17T11:51:00.795Z,1013.11
2018-10-17T11:52:00.712Z,1013.10
2018-10-17T11:53:00.741Z,1013.12
2018-10-17T11:54:00.676Z,1013.12
2018-10-17T11:55:00.666Z,1013.03
2018-10-17T11:56:00.656Z,1013.06
2018-10-17T11:57:00.675Z,1013.02
2018-10-17T11:58:00.657Z,1013.00
2018-10-17T11:59:00.623Z,1013.01
2018-10-17T12:00:00.609Z,1012.94
2018-10-17T12:01:00.599Z,1012.94
2018-10-17T12:02:00.586Z,1012.94
2018-10-17T12:03:00.609Z,1012.93
2018-10-17T12:04:00.808Z,1012.93
2018-10-17T12:05:00.736Z,1012.92